KCXO/CXO METAR and TAF weather

Enter ICAO airport designator
Station Type Date Time Source
KCXO METAR 2019/04/26 03:53 UTC NOAA

KCXO 260353Z AUTO 00000KT 10SM CLR 16/16 A2999 RMK AO2 SLP152 T01610161


Station Type Date Time Source
KCXO Decoded METAR 2019/04/26 03:53 UTC NOAA

LONE STAR EXECUTIVE AIRPORT, TX, United States (KCXO) 30-21N 95-25W 75M
Apr 25, 2019 - 11:53 PM EDT / 2019.04.26 0353 UTC
Wind: Calm:0
Visibility: 10 mile(s):0
Sky conditions: clear
Temperature: 61.0 F (16.1 C)
Dew Point: 61.0 F (16.1 C)
Relative Humidity: 100%
Pressure (altimeter): 29.99 in. Hg (1015 hPa)
ob: KCXO 260353Z AUTO 00000KT 10SM CLR 16/16 A2999 RMK AO2 SLP152 T01610161
cycle: 4

Station Type Date Time Source
KCXO TAF 2019/04/25 18:24 UTC NOAA

TAF KCXO 251720Z 2518/2618 31011KT P6SM SKC

Example: see airport list